createdAt,value
2022-10-16T00:01:22.202Z,63.10
2022-10-16T00:03:51.037Z,63.10
2022-10-16T00:06:25.382Z,63.20
2022-10-16T00:08:53.423Z,63.10
2022-10-16T00:11:22.210Z,63.10
2022-10-16T00:13:54.762Z,63.00
2022-10-16T00:16:22.708Z,62.90
2022-10-16T00:18:50.776Z,62.80
2022-10-16T00:21:23.228Z,62.90
2022-10-16T00:23:53.431Z,63.10
2022-10-16T00:26:21.742Z,63.00
2022-10-16T00:28:50.329Z,62.80
2022-10-16T00:31:18.868Z,62.90
2022-10-16T00:33:46.804Z,62.80
2022-10-16T00:36:16.628Z,62.70
2022-10-16T00:38:46.003Z,62.90
2022-10-16T00:41:17.094Z,62.90
2022-10-16T00:43:45.823Z,62.50
2022-10-16T00:46:17.543Z,62.70
2022-10-16T00:48:47.899Z,62.70
2022-10-16T00:51:15.879Z,62.70
2022-10-16T00:53:45.665Z,62.60
2022-10-16T00:56:13.719Z,62.60
2022-10-16T00:58:41.951Z,62.60
2022-10-16T01:01:09.765Z,62.70
2022-10-16T01:03:38.836Z,62.50
2022-10-16T01:06:17.488Z,62.60
2022-10-16T01:08:51.727Z,62.80
2022-10-16T01:11:22.218Z,62.90
2022-10-16T01:13:52.271Z,62.70
2022-10-16T01:16:22.409Z,62.70
2022-10-16T01:18:52.749Z,62.60
2022-10-16T01:21:23.489Z,62.60
2022-10-16T01:23:57.711Z,62.60
2022-10-16T01:26:38.485Z,62.60
2022-10-16T01:29:09.296Z,62.60
2022-10-16T01:31:38.931Z,62.80
2022-10-16T01:34:08.350Z,62.50
2022-10-16T01:36:40.209Z,62.50
2022-10-16T01:39:08.229Z,62.40
2022-10-16T01:41:38.043Z,62.60
2022-10-16T01:44:08.217Z,62.50
2022-10-16T01:46:38.722Z,62.50
2022-10-16T01:49:06.468Z,62.50
2022-10-16T01:51:34.314Z,62.40
2022-10-16T01:54:02.793Z,62.40
2022-10-16T01:56:30.729Z,62.60
2022-10-16T01:59:01.011Z,62.40
2022-10-16T02:01:31.914Z,62.40
2022-10-16T02:04:01.127Z,62.60
2022-10-16T02:06:30.548Z,62.40
2022-10-16T02:08:58.413Z,62.40
2022-10-16T02:11:26.636Z,62.30
2022-10-16T02:13:56.750Z,62.40
2022-10-16T02:16:34.316Z,62.20
2022-10-16T02:19:02.676Z,62.20
2022-10-16T02:21:31.617Z,62.30
2022-10-16T02:24:02.056Z,62.20
2022-10-16T02:26:30.754Z,62.30
2022-10-16T02:29:01.576Z,62.30
2022-10-16T02:31:31.613Z,62.30
2022-10-16T02:34:01.102Z,62.30
2022-10-16T02:36:29.267Z,62.20
2022-10-16T02:38:57.796Z,62.30
2022-10-16T02:41:25.911Z,62.20
2022-10-16T02:43:54.284Z,62.20
2022-10-16T02:46:22.249Z,62.10
2022-10-16T02:48:52.123Z,62.10
2022-10-16T02:51:20.100Z,62.10
2022-10-16T02:53:48.537Z,62.20
2022-10-16T02:56:16.579Z,62.10
2022-10-16T02:58:45.167Z,62.10
2022-10-16T03:01:13.728Z,62.00
2022-10-16T03:03:42.140Z,62.00
2022-10-16T03:06:11.467Z,62.10
2022-10-16T03:08:39.822Z,61.90
2022-10-16T03:11:07.780Z,61.90
2022-10-16T03:13:35.703Z,62.10
2022-10-16T03:16:04.046Z,61.90
2022-10-16T03:18:31.994Z,61.90
2022-10-16T03:21:00.470Z,61.90
2022-10-16T03:25:59.294Z,62.00
2022-10-16T03:28:27.428Z,61.90
2022-10-16T03:30:55.849Z,61.80
2022-10-16T03:33:23.599Z,61.90
2022-10-16T03:35:55.326Z,61.70
2022-10-16T03:38:23.217Z,61.70
2022-10-16T03:40:52.989Z,61.60
2022-10-16T03:43:20.972Z,61.70
2022-10-16T03:45:49.311Z,61.50
2022-10-16T03:48:17.292Z,61.40
2022-10-16T03:50:45.551Z,61.70
2022-10-16T03:53:13.444Z,61.50
2022-10-16T03:55:43.647Z,61.40
2022-10-16T03:58:13.321Z,61.70
2022-10-16T04:00:43.259Z,61.60
2022-10-16T04:03:11.280Z,61.40
2022-10-16T04:05:39.474Z,61.40
2022-10-16T04:08:07.219Z,61.40
2022-10-16T04:10:35.488Z,61.40
2022-10-16T04:13:03.241Z,62.00
2022-10-16T04:15:33.083Z,61.40
2022-10-16T04:18:01.034Z,61.30
2022-10-16T04:20:29.335Z,61.40
2022-10-16T04:22:57.372Z,61.40
2022-10-16T04:25:25.834Z,61.40
2022-10-16T04:27:54.916Z,61.30
2022-10-16T04:30:23.443Z,61.30
2022-10-16T04:32:52.875Z,61.30
2022-10-16T04:35:21.319Z,61.20
2022-10-16T04:37:49.080Z,61.40
2022-10-16T04:40:17.317Z,61.40
2022-10-16T04:42:45.081Z,61.40
2022-10-16T04:45:16.306Z,61.20
2022-10-16T04:47:45.230Z,61.20
2022-10-16T04:50:14.676Z,61.40
2022-10-16T04:52:42.742Z,61.40
2022-10-16T04:55:11.587Z,62.10
2022-10-16T04:57:39.634Z,61.40
2022-10-16T05:00:09.034Z,61.30
2022-10-16T05:02:37.053Z,61.40
2022-10-16T05:05:05.527Z,62.10
2022-10-16T05:07:35.377Z,61.60
2022-10-16T05:10:03.328Z,61.40
2022-10-16T05:12:31.300Z,61.50
2022-10-16T05:14:59.732Z,61.50
2022-10-16T05:17:28.787Z,61.60
2022-10-16T05:19:57.175Z,61.40
2022-10-16T05:22:25.682Z,61.40
2022-10-16T05:24:55.032Z,61.40
2022-10-16T05:27:23.535Z,61.30
2022-10-16T05:29:51.457Z,61.30
2022-10-16T05:32:20.632Z,61.40
2022-10-16T05:34:48.619Z,61.30
2022-10-16T05:37:16.730Z,61.40
2022-10-16T05:39:44.690Z,61.40
2022-10-16T05:42:14.561Z,61.30
2022-10-16T05:44:42.437Z,61.50
2022-10-16T05:47:12.144Z,61.10
2022-10-16T05:49:41.415Z,61.40
2022-10-16T05:52:09.591Z,61.30
2022-10-16T05:54:37.568Z,61.40
2022-10-16T05:57:06.739Z,61.40
2022-10-16T05:59:36.249Z,61.40
2022-10-16T06:02:04.621Z,61.40
2022-10-16T06:04:32.633Z,61.30
2022-10-16T06:07:02.691Z,61.40
2022-10-16T06:09:30.680Z,61.50
2022-10-16T06:11:59.223Z,61.50
2022-10-16T06:14:27.274Z,61.50
2022-10-16T06:16:57.302Z,61.50
2022-10-16T06:19:25.327Z,61.40
2022-10-16T06:21:53.281Z,61.50
2022-10-16T06:24:21.795Z,61.50
2022-10-16T06:26:49.835Z,61.40
2022-10-16T06:29:18.391Z,61.40
2022-10-16T06:31:46.406Z,61.40
2022-10-16T06:34:16.175Z,61.40
2022-10-16T06:36:44.486Z,61.40
2022-10-16T06:39:12.539Z,61.40
2022-10-16T06:41:40.518Z,61.40
2022-10-16T06:44:09.350Z,61.40
2022-10-16T06:46:37.501Z,61.50
2022-10-16T06:49:05.854Z,61.40
2022-10-16T06:51:40.448Z,61.10
2022-10-16T06:54:10.433Z,61.20
2022-10-16T06:56:38.585Z,61.40
2022-10-16T06:59:06.319Z,61.40
2022-10-16T07:01:34.974Z,61.30
2022-10-16T07:04:03.052Z,61.20
2022-10-16T07:06:35.132Z,61.20
2022-10-16T07:09:04.935Z,61.30
2022-10-16T07:11:32.744Z,61.30
2022-10-16T07:14:00.484Z,61.20
2022-10-16T07:16:29.445Z,61.40
2022-10-16T07:18:59.742Z,61.90
2022-10-16T07:21:30.146Z,61.10
2022-10-16T07:24:00.484Z,61.10
2022-10-16T07:26:29.094Z,61.10
2022-10-16T07:28:58.030Z,60.90
2022-10-16T07:31:26.480Z,60.90
2022-10-16T07:33:54.507Z,60.70
2022-10-16T07:36:22.679Z,60.70
2022-10-16T07:38:52.887Z,60.70
2022-10-16T07:41:25.001Z,60.60
2022-10-16T07:43:53.723Z,60.70
2022-10-16T07:46:22.260Z,60.60
2022-10-16T07:48:50.046Z,60.50
2022-10-16T07:51:19.013Z,60.50
2022-10-16T07:53:46.770Z,60.30
2022-10-16T07:56:16.064Z,60.20
2022-10-16T07:58:45.453Z,60.40
2022-10-16T08:01:14.655Z,60.40
2022-10-16T08:03:44.050Z,60.20
2022-10-16T08:06:12.029Z,60.40
2022-10-16T08:08:40.367Z,60.50
2022-10-16T08:11:08.526Z,60.50
2022-10-16T08:13:36.717Z,60.40
2022-10-16T08:16:08.791Z,60.60
2022-10-16T08:18:37.651Z,60.40
2022-10-16T08:21:06.358Z,60.20
2022-10-16T08:23:34.821Z,59.90
2022-10-16T08:26:04.900Z,59.50
2022-10-16T08:28:33.089Z,59.20
2022-10-16T08:31:09.462Z,59.40
2022-10-16T08:33:38.229Z,59.40
2022-10-16T08:36:06.617Z,59.40
2022-10-16T08:38:35.087Z,58.80
2022-10-16T08:41:12.126Z,58.40
2022-10-16T08:44:09.166Z,58.60
2022-10-16T08:46:48.252Z,59.00
2022-10-16T08:49:19.072Z,58.40
2022-10-16T08:51:47.562Z,58.50
2022-10-16T08:54:24.065Z,58.00
2022-10-16T08:56:52.140Z,58.20
2022-10-16T08:59:20.529Z,57.80
2022-10-16T09:01:51.678Z,58.00
2022-10-16T09:04:56.799Z,58.10
2022-10-16T09:07:27.738Z,58.50
2022-10-16T09:10:07.035Z,58.20
2022-10-16T09:12:38.607Z,58.20
2022-10-16T09:15:15.780Z,58.40
2022-10-16T09:17:50.594Z,58.60
2022-10-16T09:20:36.206Z,58.20
2022-10-16T09:23:17.685Z,58.00
2022-10-16T09:25:47.318Z,57.80
2022-10-16T09:28:15.137Z,57.60
2022-10-16T09:30:43.576Z,57.60
2022-10-16T09:33:13.675Z,57.90
2022-10-16T09:35:42.413Z,58.00
2022-10-16T09:38:10.638Z,57.80
2022-10-16T09:40:39.530Z,57.70
2022-10-16T09:43:19.469Z,57.60
2022-10-16T09:45:56.280Z,57.50
2022-10-16T09:48:26.302Z,57.20
2022-10-16T09:51:01.830Z,57.00
2022-10-16T09:53:43.743Z,56.40
2022-10-16T09:56:14.850Z,56.10
2022-10-16T09:58:51.445Z,55.90
2022-10-16T10:01:19.525Z,55.70
2022-10-16T10:03:49.455Z,55.40
2022-10-16T10:06:24.011Z,54.90
2022-10-16T10:09:06.692Z,54.20
2022-10-16T10:11:45.926Z,54.00
2022-10-16T10:14:30.163Z,54.00
2022-10-16T10:17:19.824Z,53.80
2022-10-16T10:19:54.520Z,53.60
2022-10-16T10:22:32.146Z,53.20
2022-10-16T10:25:03.221Z,52.90
2022-10-16T10:27:35.359Z,52.80
2022-10-16T10:30:05.907Z,52.90
2022-10-16T10:32:36.748Z,52.90
2022-10-16T10:35:15.357Z,53.00
2022-10-16T10:37:52.199Z,52.70
2022-10-16T10:40:27.013Z,52.40
2022-10-16T10:42:57.880Z,52.10
2022-10-16T10:45:28.805Z,51.70
2022-10-16T10:48:14.750Z,51.40
2022-10-16T10:50:45.329Z,51.20
2022-10-16T10:53:20.898Z,50.60
2022-10-16T10:55:51.913Z,49.70
2022-10-16T10:58:51.793Z,50.10
2022-10-16T11:01:21.303Z,49.50
2022-10-16T11:04:00.158Z,47.50
2022-10-16T11:06:32.160Z,47.40
2022-10-16T11:09:01.835Z,45.60
2022-10-16T11:11:33.515Z,43.00
2022-10-16T11:14:03.190Z,41.50
2022-10-16T11:16:32.863Z,40.60
2022-10-16T11:19:02.178Z,39.30
2022-10-16T11:21:32.745Z,38.40
2022-10-16T11:24:02.540Z,37.10
2022-10-16T11:26:33.403Z,34.90
2022-10-16T11:29:01.660Z,34.90
2022-10-16T11:31:34.961Z,34.40
2022-10-16T11:34:17.360Z,33.30
2022-10-16T11:36:47.553Z,35.50
2022-10-16T11:39:21.971Z,35.80
2022-10-16T11:41:51.307Z,36.00
2022-10-16T11:44:28.345Z,37.20
2022-10-16T11:47:28.785Z,38.90
2022-10-16T11:49:51.664Z,40.10
2022-10-16T11:52:23.027Z,41.00
2022-10-16T11:54:52.712Z,41.80
2022-10-16T11:57:22.976Z,43.90
2022-10-16T11:59:53.083Z,42.70
2022-10-16T12:02:36.019Z,40.10
2022-10-16T12:05:09.751Z,40.00
2022-10-16T12:07:40.225Z,37.30
2022-10-16T12:10:26.540Z,36.00
2022-10-16T12:12:58.743Z,35.10
2022-10-16T12:15:54.550Z,34.20
2022-10-16T12:18:23.345Z,32.90
2022-10-16T12:21:00.372Z,32.80
2022-10-16T12:23:29.571Z,31.80
2022-10-16T12:25:58.286Z,33.40
2022-10-16T12:28:29.922Z,35.40
2022-10-16T12:30:59.102Z,34.80
2022-10-16T12:33:28.130Z,32.20
2022-10-16T12:35:56.324Z,34.80
2022-10-16T12:38:27.028Z,33.90
2022-10-16T12:41:00.988Z,34.10
2022-10-16T12:43:40.253Z,35.00
2022-10-16T12:46:27.380Z,36.40
2022-10-16T12:49:06.716Z,34.70
2022-10-16T12:51:37.308Z,33.40
2022-10-16T12:54:06.061Z,32.40
2022-10-16T12:59:19.943Z,30.90
2022-10-16T13:01:58.612Z,30.50
2022-10-16T13:04:51.599Z,30.00
2022-10-16T13:07:31.714Z,29.80
2022-10-16T13:10:05.163Z,29.50
2022-10-16T13:12:48.152Z,29.20
2022-10-16T13:15:39.864Z,29.00
2022-10-16T13:18:10.569Z,28.80
2022-10-16T13:20:44.964Z,28.90
2022-10-16T13:23:17.382Z,28.80
2022-10-16T13:25:56.185Z,28.80
2022-10-16T13:28:30.685Z,28.80
2022-10-16T13:30:59.783Z,28.70
2022-10-16T13:33:31.252Z,28.90
2022-10-16T13:36:00.001Z,29.00
2022-10-16T13:38:28.726Z,29.50
2022-10-16T13:40:57.498Z,30.00
2022-10-16T13:43:29.132Z,30.90
2022-10-16T13:46:01.345Z,31.90
2022-10-16T13:48:29.548Z,33.20
2022-10-16T13:51:05.109Z,34.40
2022-10-16T13:53:34.713Z,35.60
2022-10-16T13:56:03.806Z,36.60
2022-10-16T13:58:33.670Z,37.50
2022-10-16T14:01:02.395Z,38.20
2022-10-16T14:03:31.333Z,38.90
2022-10-16T14:06:00.235Z,39.20
2022-10-16T14:08:29.153Z,39.40
2022-10-16T14:10:58.170Z,39.60
2022-10-16T14:13:34.171Z,39.80
2022-10-16T14:16:04.036Z,39.70
2022-10-16T14:18:33.638Z,39.80
2022-10-16T14:21:07.672Z,40.20
2022-10-16T14:23:39.100Z,40.50
2022-10-16T14:26:18.041Z,40.80
2022-10-16T14:28:48.724Z,41.20
2022-10-16T14:31:26.456Z,41.30
2022-10-16T14:33:55.061Z,40.70
2022-10-16T14:36:23.078Z,40.10
2022-10-16T14:38:52.847Z,40.60
2022-10-16T14:41:22.535Z,40.70
2022-10-16T14:43:53.594Z,40.60
2022-10-16T14:46:26.873Z,40.50
2022-10-16T14:49:00.177Z,40.60
2022-10-16T14:51:28.646Z,40.80
2022-10-16T14:54:00.181Z,41.10
2022-10-16T14:56:33.167Z,41.40
2022-10-16T14:59:03.117Z,41.60
2022-10-16T15:01:31.740Z,42.00
2022-10-16T15:03:59.729Z,42.40
2022-10-16T15:06:27.845Z,42.50
2022-10-16T15:08:55.912Z,42.70
2022-10-16T15:11:23.992Z,42.90
2022-10-16T15:13:52.315Z,43.10
2022-10-16T15:16:21.660Z,43.30
2022-10-16T15:18:49.399Z,43.50
2022-10-16T15:21:23.653Z,43.70
2022-10-16T15:23:51.822Z,43.90
2022-10-16T15:26:20.520Z,44.00
2022-10-16T15:28:50.970Z,44.20
2022-10-16T15:31:19.275Z,44.50
2022-10-16T15:33:54.676Z,45.10
2022-10-16T15:36:29.943Z,44.70
2022-10-16T15:38:58.054Z,44.80
2022-10-16T15:41:26.200Z,45.10
2022-10-16T15:43:54.353Z,45.10
2022-10-16T15:46:23.884Z,45.20
2022-10-16T15:48:53.417Z,45.40
2022-10-16T15:51:22.283Z,45.60
2022-10-16T15:53:51.865Z,45.70
2022-10-16T15:56:20.017Z,45.80
2022-10-16T15:58:48.064Z,45.90
2022-10-16T16:01:16.155Z,46.00
2022-10-16T16:03:45.507Z,46.10
2022-10-16T16:06:15.931Z,46.20
2022-10-16T16:08:44.808Z,46.30
2022-10-16T16:11:13.802Z,46.40
2022-10-16T16:13:42.230Z,46.50
2022-10-16T16:16:10.553Z,46.60
2022-10-16T16:18:39.095Z,46.80
2022-10-16T16:21:07.556Z,46.80
2022-10-16T16:23:37.079Z,46.90
2022-10-16T16:26:06.718Z,47.00
2022-10-16T16:28:35.564Z,47.10
2022-10-16T16:31:03.625Z,47.10
2022-10-16T16:33:32.455Z,47.20
2022-10-16T16:36:00.735Z,47.30
2022-10-16T16:38:29.116Z,47.40
2022-10-16T16:40:58.546Z,47.40
2022-10-16T16:43:26.742Z,47.50
2022-10-16T16:45:54.804Z,47.60
2022-10-16T16:48:23.094Z,47.60
2022-10-16T16:50:51.189Z,47.70
2022-10-16T16:53:19.367Z,47.70
2022-10-16T16:55:47.411Z,47.80
2022-10-16T16:58:16.916Z,47.90
2022-10-16T17:00:56.535Z,48.00
2022-10-16T17:03:25.498Z,48.00
2022-10-16T17:05:59.538Z,48.10
2022-10-16T17:08:27.534Z,48.10
2022-10-16T17:10:56.193Z,48.20
2022-10-16T17:13:25.753Z,48.30
2022-10-16T17:15:54.147Z,48.40
2022-10-16T17:18:22.384Z,48.40
2022-10-16T17:20:50.514Z,48.40
2022-10-16T17:23:19.259Z,48.50
2022-10-16T17:25:47.505Z,48.60
2022-10-16T17:28:15.661Z,48.60
2022-10-16T17:30:46.195Z,48.60
2022-10-16T17:33:14.454Z,48.60
2022-10-16T17:35:43.152Z,48.80
2022-10-16T17:38:11.232Z,48.90
2022-10-16T17:40:39.326Z,48.90
2022-10-16T17:43:07.368Z,48.90
2022-10-16T17:45:38.081Z,49.00
2022-10-16T17:48:07.501Z,49.10
2022-10-16T17:50:35.404Z,49.00
2022-10-16T17:53:03.175Z,49.10
2022-10-16T17:55:31.718Z,49.00
2022-10-16T17:57:59.809Z,49.20
2022-10-16T18:00:27.896Z,49.20
2022-10-16T18:02:55.868Z,49.30
2022-10-16T18:05:25.443Z,49.20
2022-10-16T18:07:53.565Z,49.30
2022-10-16T18:10:21.495Z,49.40
2022-10-16T18:12:49.260Z,49.40
2022-10-16T18:15:17.911Z,49.30
2022-10-16T18:17:45.674Z,49.40
2022-10-16T18:20:14.466Z,50.00
2022-10-16T18:22:43.661Z,49.50
2022-10-16T18:25:12.262Z,49.40
2022-10-16T18:27:40.291Z,50.10
2022-10-16T18:30:09.745Z,49.60
2022-10-16T18:32:37.706Z,49.60
2022-10-16T18:35:06.828Z,49.50
2022-10-16T18:37:36.645Z,49.50
2022-10-16T18:40:07.175Z,49.50
2022-10-16T18:42:35.141Z,49.60
2022-10-16T18:45:03.259Z,49.60
2022-10-16T18:47:31.199Z,49.80
2022-10-16T18:49:59.287Z,50.00
2022-10-16T18:52:27.168Z,50.10
2022-10-16T18:54:58.581Z,50.30
2022-10-16T18:57:30.303Z,50.40
2022-10-16T18:59:59.809Z,50.70
2022-10-16T19:02:27.869Z,50.80
2022-10-16T19:04:55.989Z,50.80
2022-10-16T19:07:24.035Z,50.90
2022-10-16T19:09:52.089Z,51.10
2022-10-16T19:12:20.258Z,51.20
2022-10-16T19:14:50.621Z,51.20
2022-10-16T19:17:19.447Z,51.30
2022-10-16T19:19:47.556Z,51.60
2022-10-16T19:22:28.274Z,51.70
2022-10-16T19:24:56.470Z,51.80
2022-10-16T19:27:25.190Z,51.90
2022-10-16T19:29:54.572Z,52.00
2022-10-16T19:32:22.785Z,51.90
2022-10-16T19:34:51.604Z,52.10
2022-10-16T19:37:25.871Z,52.20
2022-10-16T19:39:53.785Z,52.30
2022-10-16T19:42:22.280Z,52.40
2022-10-16T19:44:50.705Z,52.50
2022-10-16T19:47:22.976Z,52.80
2022-10-16T19:49:52.499Z,52.80
2022-10-16T19:52:22.215Z,52.90
2022-10-16T19:54:50.211Z,53.10
2022-10-16T19:57:18.287Z,53.10
2022-10-16T19:59:46.181Z,53.00
2022-10-16T20:02:14.670Z,53.30
2022-10-16T20:04:44.066Z,53.20
2022-10-16T20:07:12.137Z,53.20
2022-10-16T20:09:39.977Z,53.50
2022-10-16T20:12:07.843Z,53.50
2022-10-16T20:14:35.712Z,53.50
2022-10-16T20:17:03.913Z,53.70
2022-10-16T20:19:32.033Z,53.70
2022-10-16T20:22:02.121Z,53.80
2022-10-16T20:24:30.058Z,54.10
2022-10-16T20:27:00.047Z,54.00
2022-10-16T20:29:27.948Z,54.00
2022-10-16T20:31:56.435Z,54.20
2022-10-16T20:34:24.312Z,54.20
2022-10-16T20:36:52.393Z,54.30
2022-10-16T20:39:21.775Z,54.20
2022-10-16T20:41:49.787Z,54.50
2022-10-16T20:44:18.098Z,54.50
2022-10-16T20:46:46.061Z,54.60
2022-10-16T20:49:28.493Z,54.50
2022-10-16T20:52:02.013Z,54.60
2022-10-16T20:54:31.885Z,54.70
2022-10-16T20:56:59.798Z,54.90
2022-10-16T20:59:27.838Z,54.90
2022-10-16T21:01:55.855Z,54.70
2022-10-16T21:04:24.522Z,55.00
2022-10-16T21:06:52.549Z,54.90
2022-10-16T21:09:20.507Z,55.10
2022-10-16T21:11:49.936Z,55.00
2022-10-16T21:14:17.773Z,55.10
2022-10-16T21:16:45.545Z,55.30
2022-10-16T21:19:13.340Z,55.40
2022-10-16T21:21:41.312Z,55.40
2022-10-16T21:24:12.284Z,55.30
2022-10-16T21:26:42.937Z,55.30
2022-10-16T21:29:12.053Z,55.30
2022-10-16T21:31:39.959Z,55.40
2022-10-16T21:34:07.988Z,55.50
2022-10-16T21:36:36.981Z,55.40
2022-10-16T21:39:06.191Z,55.40
2022-10-16T21:41:33.985Z,55.50
2022-10-16T21:44:02.218Z,55.70
2022-10-16T21:46:32.692Z,55.80
2022-10-16T21:49:01.350Z,55.80
2022-10-16T21:51:29.424Z,55.80
2022-10-16T21:53:57.210Z,55.80
2022-10-16T21:56:24.964Z,55.80
2022-10-16T21:58:53.294Z,56.00
2022-10-16T22:01:21.980Z,55.90
2022-10-16T22:03:51.742Z,56.00
2022-10-16T22:08:54.251Z,56.00
2022-10-16T22:11:23.966Z,56.00
2022-10-16T22:13:56.421Z,56.20
2022-10-16T22:16:25.470Z,56.20
2022-10-16T22:18:55.339Z,56.30
2022-10-16T22:21:23.512Z,56.30
2022-10-16T22:23:51.413Z,56.60
2022-10-16T22:26:19.764Z,56.50
2022-10-16T22:28:47.547Z,56.50
2022-10-16T22:31:16.179Z,56.50
2022-10-16T22:33:44.160Z,56.60
2022-10-16T22:36:14.288Z,56.60
2022-10-16T22:38:42.493Z,56.60
2022-10-16T22:41:11.428Z,56.50
2022-10-16T22:43:39.931Z,56.70
2022-10-16T22:46:09.206Z,56.70
2022-10-16T22:48:37.429Z,56.80
2022-10-16T22:51:05.934Z,56.90
2022-10-16T22:53:35.424Z,56.90
2022-10-16T22:56:03.662Z,56.90
2022-10-16T22:58:31.446Z,57.00
2022-10-16T23:00:59.436Z,57.00
2022-10-16T23:03:27.405Z,56.90
2022-10-16T23:05:55.602Z,57.20
2022-10-16T23:08:23.888Z,57.20
2022-10-16T23:10:53.609Z,57.10
2022-10-16T23:13:21.458Z,57.30
2022-10-16T23:15:49.566Z,57.40
2022-10-16T23:18:17.330Z,57.50
2022-10-16T23:20:45.106Z,57.50
2022-10-16T23:23:13.138Z,57.40
2022-10-16T23:25:48.590Z,57.50
2022-10-16T23:28:17.769Z,57.40
2022-10-16T23:30:45.878Z,57.30
2022-10-16T23:33:13.834Z,57.60
2022-10-16T23:35:41.728Z,57.60
2022-10-16T23:38:09.657Z,57.50
2022-10-16T23:40:37.854Z,57.60
2022-10-16T23:43:05.844Z,57.60
2022-10-16T23:45:35.617Z,57.80
2022-10-16T23:48:03.465Z,57.80
2022-10-16T23:50:31.672Z,57.90
2022-10-16T23:52:59.593Z,57.70
2022-10-16T23:55:27.595Z,57.90
2022-10-16T23:57:56.034Z,57.80
